KCKV/CKV METAR and TAF weather

Enter ICAO airport designator
Station Type Date Time Source
KCKV METAR 2022/06/30 01:52 UTC NOAA

KCKV 300152Z AUTO 35004KT 10SM CLR 26/11 A3016 RMK AO2 SLP209 T02560106 $


Station Type Date Time Source
KCKV Decoded METAR 2022/06/30 01:52 UTC NOAA

CLARKSVILLE OUTLAW FIELD, TN, United States (KCKV) 36-37N 87-25W 165M
Jun 29, 2022 - 09:52 PM EDT / 2022.06.30 0152 UTC
Wind: from the N (350 degrees) at 5 MPH (4 KT):0
Visibility: 10 mile(s):0
Sky conditions: clear
Temperature: 78.1 F (25.6 C)
Dew Point: 51.1 F (10.6 C)
Relative Humidity: 38%
Pressure (altimeter): 30.16 in. Hg (1021 hPa)
ob: KCKV 300152Z AUTO 35004KT 10SM CLR 26/11 A3016 RMK AO2 SLP209 T02560106
cycle: 2

Station Type Date Time Source
KCKV TAF 2022/06/29 18:28 UTC NOAA

TAF KCKV 291726Z 2918/3018 06005KT P6SM SKC
FM301200 15005KT P6SM SCT250

Example: see airport list